Decoded Metar for KBVE (BOOTHVILLE in LA, USA) (IATA:BVE) | Meteo·Mobile Aviation Weather
aviador You're here:

KBVE Decoded Metar

BOOTHVILLE in LA, USA
Report Time2019-02-16 07:51:00
UTC Time2019-02-16 08:08:37
Flight Rules vfr VFR
Wind220° at 07 kt
W.Rank220° ranks 23
Current wind is below 220° avg. (7.3)
Visibility9656 m
Phenomena:Mist
Clouds:Scattered 049 Hf
Expected CloudBase > 400 ft AGL from Temp-Dew spread
CeilingNone
Temp18°C (ISA +3)
Dew Point17°C (94% RH)
AAT17.9°C
QNH1011 hPa
Density Alt679 ft
Elevation3 ft
Report Wrong Elevation
Raw Report
KBVE 160751Z AUTO 22007KT 6SM BR SCT049 18/17 A2985 RMK AO2 SLP106
T01780167=

Extra information for KBVE:More info

Metar Taf Metar & Taf Last 4 Metars F.Rules Stats Wind Profile Meteogram Temp Stats Airport Information Weather charts Add Link Nearby VenuesMetar ALERT Operation Metar Decoded Social comments

AIRNAV info for KBVE